sensor_id;sensor_type;location;lat;lon;timestamp;pressure;altitude;pressure_sealevel;temperature;humidity
62057;BME280;48016;50.284;18.860;2022-07-29T00:01:49;98444.91;;;16.25;63.39
62057;BME280;48016;50.284;18.860;2022-07-29T00:04:19;98439.45;;;16.25;63.85
62057;BME280;48016;50.284;18.860;2022-07-29T00:06:46;98435.92;;;16.25;64.29
62057;BME280;48016;50.284;18.860;2022-07-29T00:09:13;98430.19;;;16.26;64.10
62057;BME280;48016;50.284;18.860;2022-07-29T00:11:40;98434.53;;;16.27;64.18
62057;BME280;48016;50.284;18.860;2022-07-29T00:14:08;98429.88;;;16.28;63.94
62057;BME280;48016;50.284;18.860;2022-07-29T00:16:35;98435.06;;;16.30;64.55
62057;BME280;48016;50.284;18.860;2022-07-29T00:19:03;98431.22;;;16.31;64.03
62057;BME280;48016;50.284;18.860;2022-07-29T00:21:30;98424.69;;;16.32;63.92
62057;BME280;48016;50.284;18.860;2022-07-29T00:23:57;98425.49;;;16.32;64.18
62057;BME280;48016;50.284;18.860;2022-07-29T00:26:24;98427.91;;;16.34;64.19
62057;BME280;48016;50.284;18.860;2022-07-29T00:28:54;98429.83;;;16.33;63.86
62057;BME280;48016;50.284;18.860;2022-07-29T00:31:21;98426.83;;;16.35;63.78
62057;BME280;48016;50.284;18.860;2022-07-29T00:33:48;98425.99;;;16.34;63.55
62057;BME280;48016;50.284;18.860;2022-07-29T00:36:15;98423.57;;;16.33;63.70
62057;BME280;48016;50.284;18.860;2022-07-29T00:38:42;98424.69;;;16.32;63.53
62057;BME280;48016;50.284;18.860;2022-07-29T00:41:12;98417.30;;;16.32;63.36
62057;BME280;48016;50.284;18.860;2022-07-29T00:43:39;98416.50;;;16.32;63.26
62057;BME280;48016;50.284;18.860;2022-07-29T00:46:06;98421.42;;;16.30;63.15
62057;BME280;48016;50.284;18.860;2022-07-29T00:48:33;98411.59;;;16.28;62.78
62057;BME280;48016;50.284;18.860;2022-07-29T00:51:05;98413.23;;;16.30;62.37
62057;BME280;48016;50.284;18.860;2022-07-29T00:53:32;98407.78;;;16.30;62.04
62057;BME280;48016;50.284;18.860;2022-07-29T00:56:00;98400.68;;;16.28;61.95
62057;BME280;48016;50.284;18.860;2022-07-29T00:58:27;98409.70;;;16.29;61.72
62057;BME280;48016;50.284;18.860;2022-07-29T01:00:55;98405.05;;;16.30;61.49
62057;BME280;48016;50.284;18.860;2022-07-29T01:03:22;98395.23;;;16.28;61.37
62057;BME280;48016;50.284;18.860;2022-07-29T01:05:49;98393.91;;;16.26;61.54
62057;BME280;48016;50.284;18.860;2022-07-29T01:08:17;98397.23;;;16.23;61.23
62057;BME280;48016;50.284;18.860;2022-07-29T01:10:45;98396.39;;;16.22;60.97
62057;BME280;48016;50.284;18.860;2022-07-29T01:13:14;98396.39;;;16.22;60.73
62057;BME280;48016;50.284;18.860;2022-07-29T01:15:46;98392.58;;;16.23;60.69
62057;BME280;48016;50.284;18.860;2022-07-29T01:18:21;98395.58;;;16.22;60.57
62057;BME280;48016;50.284;18.860;2022-07-29T01:23:30;98396.39;;;16.22;60.17
62057;BME280;48016;50.284;18.860;2022-07-29T01:29:38;98398.61;;;16.20;59.89
62057;BME280;48016;50.284;18.860;2022-07-29T01:32:11;98391.52;;;16.19;59.60
62057;BME280;48016;50.284;18.860;2022-07-29T01:38:01;98395.35;;;16.18;59.25
62057;BME280;48016;50.284;18.860;2022-07-29T01:40:51;98393.73;;;16.17;59.29
62057;BME280;48016;50.284;18.860;2022-07-29T01:43:41;98391.28;;;16.16;59.29
62057;BME280;48016;50.284;18.860;2022-07-29T01:46:20;98388.86;;;16.14;59.20
62057;BME280;48016;50.284;18.860;2022-07-29T01:48:57;98381.77;;;16.13;58.80
62057;BME280;48016;50.284;18.860;2022-07-29T01:51:38;98380.15;;;16.12;59.02
62057;BME280;48016;50.284;18.860;2022-07-29T01:54:18;98366.78;;;16.11;58.79
62057;BME280;48016;50.284;18.860;2022-07-29T01:56:48;98376.89;;;16.10;58.66
62057;BME280;48016;50.284;18.860;2022-07-29T01:59:18;98371.73;;;16.09;58.83
62057;BME280;48016;50.284;18.860;2022-07-29T02:01:47;98369.28;;;16.07;58.83
62057;BME280;48016;50.284;18.860;2022-07-29T02:04:17;98373.13;;;16.06;58.70
62057;BME280;48016;50.284;18.860;2022-07-29T02:06:48;98378.85;;;16.04;58.13
62057;BME280;48016;50.284;18.860;2022-07-29T02:09:17;98370.40;;;16.06;58.47
62057;BME280;48016;50.284;18.860;2022-07-29T02:11:49;98366.56;;;16.07;58.22
62057;BME280;48016;50.284;18.860;2022-07-29T02:14:19;98371.73;;;16.09;57.87
62057;BME280;48016;50.284;18.860;2022-07-29T02:16:50;98359.41;;;16.11;57.55
62057;BME280;48016;50.284;18.860;2022-07-29T02:19:19;98367.05;;;16.14;57.82
62057;BME280;48016;50.284;18.860;2022-07-29T02:21:48;98368.66;;;16.15;57.44
62057;BME280;48016;50.284;18.860;2022-07-29T02:24:16;98364.01;;;16.16;57.36
62057;BME280;48016;50.284;18.860;2022-07-29T02:26:45;98367.27;;;16.18;57.25
62057;BME280;48016;50.284;18.860;2022-07-29T02:29:15;98368.08;;;16.18;57.26
62057;BME280;48016;50.284;18.860;2022-07-29T02:31:45;98362.63;;;16.18;57.02
62057;BME280;48016;50.284;18.860;2022-07-29T02:34:15;98358.78;;;16.19;57.22
62057;BME280;48016;50.284;18.860;2022-07-29T02:36:44;98369.69;;;16.19;57.16
62057;BME280;48016;50.284;18.860;2022-07-29T02:39:13;98368.61;;;16.20;56.77
62057;BME280;48016;50.284;18.860;2022-07-29T02:41:47;98365.88;;;16.20;56.91
62057;BME280;48016;50.284;18.860;2022-07-29T02:44:19;98362.05;;;16.21;56.93
62057;BME280;48016;50.284;18.860;2022-07-29T02:46:54;98363.66;;;16.22;56.52
62057;BME280;48016;50.284;18.860;2022-07-29T02:49:35;98362.57;;;16.23;56.78
62057;BME280;48016;50.284;18.860;2022-07-29T02:52:08;98357.11;;;16.23;56.57
62057;BME280;48016;50.284;18.860;2022-07-29T02:58:19;98350.55;;;16.24;56.71
62057;BME280;48016;50.284;18.860;2022-07-29T03:00:51;98350.55;;;16.24;56.74
62057;BME280;48016;50.284;18.860;2022-07-29T03:03:18;98354.39;;;16.23;56.87
62057;BME280;48016;50.284;18.860;2022-07-29T03:05:47;98342.67;;;16.23;56.93
62057;BME280;48016;50.284;18.860;2022-07-29T03:08:14;98332.84;;;16.22;56.80
62057;BME280;48016;50.284;18.860;2022-07-29T03:10:43;98338.61;;;16.20;56.90
62057;BME280;48016;50.284;18.860;2022-07-29T03:13:11;98334.23;;;16.19;56.84
62057;BME280;48016;50.284;18.860;2022-07-29T03:15:39;98339.69;;;16.19;57.13
62057;BME280;48016;50.284;18.860;2022-07-29T03:18:09;98337.77;;;16.20;57.21
62057;BME280;48016;50.284;18.860;2022-07-29T03:20:38;98332.31;;;16.20;57.18
62057;BME280;48016;50.284;18.860;2022-07-29T03:23:05;98340.75;;;16.23;56.93
62057;BME280;48016;50.284;18.860;2022-07-29T03:25:33;98346.43;;;16.27;57.14
62057;BME280;48016;50.284;18.860;2022-07-29T03:28:00;98346.66;;;16.31;57.08
62057;BME280;48016;50.284;18.860;2022-07-29T03:30:27;98337.66;;;16.30;57.21
62057;BME280;48016;50.284;18.860;2022-07-29T03:32:57;98337.08;;;16.33;57.42
62057;BME280;48016;50.284;18.860;2022-07-29T03:35:24;98341.95;;;16.36;57.14
62057;BME280;48016;50.284;18.860;2022-07-29T03:37:51;98350.66;;;16.38;57.30
62057;BME280;48016;50.284;18.860;2022-07-29T03:40:23;98352.00;;;16.41;57.11
62057;BME280;48016;50.284;18.860;2022-07-29T03:42:53;98340.78;;;16.42;57.27
62057;BME280;48016;50.284;18.860;2022-07-29T03:45:22;98340.78;;;16.42;57.22
62057;BME280;48016;50.284;18.860;2022-07-29T03:47:58;98338.58;;;16.44;57.23
62057;BME280;48016;50.284;18.860;2022-07-29T03:50:26;98337.19;;;16.47;57.21
62057;BME280;48016;50.284;18.860;2022-07-29T03:52:54;98337.72;;;16.49;57.20
62057;BME280;48016;50.284;18.860;2022-07-29T03:55:21;98336.02;;;16.53;57.33
62057;BME280;48016;50.284;18.860;2022-07-29T03:57:48;98341.47;;;16.53;57.54
62057;BME280;48016;50.284;18.860;2022-07-29T04:00:16;98332.17;;;16.54;57.33
62057;BME280;48016;50.284;18.860;2022-07-29T04:02:44;98339.48;;;16.59;57.30
62057;BME280;48016;50.284;18.860;2022-07-29T04:05:15;98344.58;;;16.65;57.56
62057;BME280;48016;50.284;18.860;2022-07-29T04:07:46;98348.02;;;16.76;57.44
62057;BME280;48016;50.284;18.860;2022-07-29T04:10:15;98350.31;;;16.88;57.33
62057;BME280;48016;50.284;18.860;2022-07-29T04:12:43;98352.59;;;17.00;56.96
62057;BME280;48016;50.284;18.860;2022-07-29T04:15:11;98353.27;;;17.10;56.65
62057;BME280;48016;50.284;18.860;2022-07-29T04:17:38;98355.02;;;17.20;56.82
62057;BME280;48016;50.284;18.860;2022-07-29T04:20:06;98351.91;;;17.27;56.80
62057;BME280;48016;50.284;18.860;2022-07-29T04:22:33;98353.47;;;17.33;56.61
62057;BME280;48016;50.284;18.860;2022-07-29T04:25:00;98353.69;;;17.36;56.41
62057;BME280;48016;50.284;18.860;2022-07-29T04:27:27;98348.95;;;17.42;56.31
62057;BME280;48016;50.284;18.860;2022-07-29T04:29:55;98354.70;;;17.40;56.51
62057;BME280;48016;50.284;18.860;2022-07-29T04:32:22;98353.97;;;17.35;56.68
62057;BME280;48016;50.284;18.860;2022-07-29T04:34:49;98349.44;;;17.44;56.69
62057;BME280;48016;50.284;18.860;2022-07-29T04:37:16;98342.70;;;17.55;56.47
62057;BME280;48016;50.284;18.860;2022-07-29T04:39:43;98338.44;;;17.49;56.33
62057;BME280;48016;50.284;18.860;2022-07-29T04:42:10;98335.77;;;17.44;56.49
62057;BME280;48016;50.284;18.860;2022-07-29T04:44:37;98333.64;;;17.41;56.83
62057;BME280;48016;50.284;18.860;2022-07-29T04:47:07;98326.56;;;17.40;57.09
62057;BME280;48016;50.284;18.860;2022-07-29T04:49:37;98338.09;;;17.37;56.98
62057;BME280;48016;50.284;18.860;2022-07-29T04:52:05;98344.08;;;17.39;57.17
62057;BME280;48016;50.284;18.860;2022-07-29T04:54:33;98332.03;;;17.40;57.08
62057;BME280;48016;50.284;18.860;2022-07-29T04:57:00;98336.03;;;17.61;56.89
62057;BME280;48016;50.284;18.860;2022-07-29T04:59:27;98344.53;;;17.93;56.51
62057;BME280;48016;50.284;18.860;2022-07-29T05:01:54;98338.90;;;18.17;55.70
62057;BME280;48016;50.284;18.860;2022-07-29T05:04:21;98341.10;;;18.42;54.97
62057;BME280;48016;50.284;18.860;2022-07-29T05:06:49;98335.41;;;18.66;54.84
62057;BME280;48016;50.284;18.860;2022-07-29T05:09:16;98338.83;;;18.86;54.34
62057;BME280;48016;50.284;18.860;2022-07-29T05:11:44;98339.82;;;19.04;53.72
62057;BME280;48016;50.284;18.860;2022-07-29T05:14:11;98327.42;;;19.29;53.33
62057;BME280;48016;50.284;18.860;2022-07-29T05:16:38;98330.97;;;19.52;52.92
62057;BME280;48016;50.284;18.860;2022-07-29T05:19:06;98324.19;;;19.72;52.42
62057;BME280;48016;50.284;18.860;2022-07-29T05:21:33;98327.40;;;19.96;52.41
62057;BME280;48016;50.284;18.860;2022-07-29T05:24:01;98325.53;;;20.14;52.14
62057;BME280;48016;50.284;18.860;2022-07-29T05:26:27;98336.73;;;20.35;51.32
62057;BME280;48016;50.284;18.860;2022-07-29T05:28:55;98321.95;;;20.53;50.92
62057;BME280;48016;50.284;18.860;2022-07-29T05:31:22;98327.33;;;20.76;50.85
62057;BME280;48016;50.284;18.860;2022-07-29T05:33:49;98328.34;;;20.97;50.60
62057;BME280;48016;50.284;18.860;2022-07-29T05:36:17;98324.75;;;21.23;50.64
62057;BME280;48016;50.284;18.860;2022-07-29T05:38:44;98323.14;;;21.31;49.64
62057;BME280;48016;50.284;18.860;2022-07-29T05:41:11;98316.20;;;21.42;49.50
62057;BME280;48016;50.284;18.860;2022-07-29T05:43:38;98316.68;;;21.53;49.27
62057;BME280;48016;50.284;18.860;2022-07-29T05:46:05;98328.64;;;21.57;49.15
62057;BME280;48016;50.284;18.860;2022-07-29T05:48:32;98328.62;;;21.65;49.53
62057;BME280;48016;50.284;18.860;2022-07-29T05:50:59;98334.59;;;21.76;49.08
62057;BME280;48016;50.284;18.860;2022-07-29T05:53:26;98324.88;;;21.79;48.63
62057;BME280;48016;50.284;18.860;2022-07-29T05:55:54;98334.42;;;21.81;48.65
62057;BME280;48016;50.284;18.860;2022-07-29T05:58:21;98330.98;;;21.93;48.76
62057;BME280;48016;50.284;18.860;2022-07-29T06:00:48;98333.53;;;21.98;48.57
62057;BME280;48016;50.284;18.860;2022-07-29T06:03:15;98338.83;;;22.21;48.61
62057;BME280;48016;50.284;18.860;2022-07-29T06:05:43;98341.59;;;22.50;48.25
62057;BME280;48016;50.284;18.860;2022-07-29T06:08:10;98332.98;;;22.82;47.87
62057;BME280;48016;50.284;18.860;2022-07-29T06:10:37;98338.53;;;23.03;47.70
62057;BME280;48016;50.284;18.860;2022-07-29T06:13:04;98326.84;;;23.27;46.90
62057;BME280;48016;50.284;18.860;2022-07-29T06:15:32;98330.88;;;23.29;47.05
62057;BME280;48016;50.284;18.860;2022-07-29T06:18:00;98330.44;;;23.39;46.21
62057;BME280;48016;50.284;18.860;2022-07-29T06:20:30;98338.80;;;23.31;46.12
62057;BME280;48016;50.284;18.860;2022-07-29T06:22:58;98336.59;;;23.24;46.30
62057;BME280;48016;50.284;18.860;2022-07-29T06:25:26;98331.80;;;23.33;46.63
62057;BME280;48016;50.284;18.860;2022-07-29T06:27:56;98332.35;;;23.60;46.94
62057;BME280;48016;50.284;18.860;2022-07-29T06:30:23;98325.10;;;23.88;46.13
62057;BME280;48016;50.284;18.860;2022-07-29T06:32:50;98335.52;;;24.16;45.99
62057;BME280;48016;50.284;18.860;2022-07-29T06:35:18;98332.97;;;24.11;45.47
62057;BME280;48016;50.284;18.860;2022-07-29T06:37:45;98336.14;;;23.88;45.39
62057;BME280;48016;50.284;18.860;2022-07-29T06:40:12;98325.79;;;23.85;45.87
62057;BME280;48016;50.284;18.860;2022-07-29T06:42:58;98336.33;;;23.71;46.46
62057;BME280;48016;50.284;18.860;2022-07-29T06:45:25;98329.66;;;23.72;46.44
62057;BME280;48016;50.284;18.860;2022-07-29T06:47:52;98330.44;;;23.39;46.38
62057;BME280;48016;50.284;18.860;2022-07-29T06:50:20;98336.39;;;23.29;46.78
62057;BME280;48016;50.284;18.860;2022-07-29T06:52:48;98331.59;;;23.38;47.05
62057;BME280;48016;50.284;18.860;2022-07-29T06:55:15;98334.16;;;23.43;47.17
62057;BME280;48016;50.284;18.860;2022-07-29T06:57:42;98331.92;;;23.37;46.83
62057;BME280;48016;50.284;18.860;2022-07-29T07:00:10;98333.63;;;23.29;47.21
62057;BME280;48016;50.284;18.860;2022-07-29T07:02:38;98337.95;;;23.18;47.36
62057;BME280;48016;50.284;18.860;2022-07-29T07:05:06;98335.86;;;23.15;47.78
62057;BME280;48016;50.284;18.860;2022-07-29T07:07:33;98338.31;;;23.50;47.52
62057;BME280;48016;50.284;18.860;2022-07-29T07:10:00;98332.81;;;23.95;46.53
62057;BME280;48016;50.284;18.860;2022-07-29T07:12:27;98350.92;;;24.29;45.72
62057;BME280;48016;50.284;18.860;2022-07-29T07:14:54;98333.34;;;24.58;45.81
62057;BME280;48016;50.284;18.860;2022-07-29T07:17:22;98333.19;;;24.92;45.39
62057;BME280;48016;50.284;18.860;2022-07-29T07:19:49;98334.88;;;25.21;44.18
62057;BME280;48016;50.284;18.860;2022-07-29T07:22:16;98315.14;;;25.22;44.54
62057;BME280;48016;50.284;18.860;2022-07-29T07:24:43;98322.46;;;25.43;44.58
62057;BME280;48016;50.284;18.860;2022-07-29T07:27:10;98317.30;;;25.57;43.88
62057;BME280;48016;50.284;18.860;2022-07-29T07:29:37;98324.20;;;25.63;43.38
62057;BME280;48016;50.284;18.860;2022-07-29T07:32:07;98324.17;;;25.91;43.43
62057;BME280;48016;50.284;18.860;2022-07-29T07:34:34;98314.41;;;25.82;43.12
62057;BME280;48016;50.284;18.860;2022-07-29T07:37:02;98325.91;;;25.40;43.39
62057;BME280;48016;50.284;18.860;2022-07-29T07:39:29;98332.25;;;25.00;44.43
62057;BME280;48016;50.284;18.860;2022-07-29T07:41:56;98313.77;;;24.64;45.13
62057;BME280;48016;50.284;18.860;2022-07-29T07:44:23;98326.80;;;24.51;45.74
62057;BME280;48016;50.284;18.860;2022-07-29T07:46:50;98315.37;;;24.40;46.31
62057;BME280;48016;50.284;18.860;2022-07-29T07:49:17;98313.42;;;24.53;46.33
62057;BME280;48016;50.284;18.860;2022-07-29T07:51:44;98314.80;;;24.71;46.21
62057;BME280;48016;50.284;18.860;2022-07-29T07:54:12;98308.27;;;25.04;46.06
62057;BME280;48016;50.284;18.860;2022-07-29T07:56:39;98313.61;;;25.37;45.74
62057;BME280;48016;50.284;18.860;2022-07-29T07:59:06;98313.05;;;25.32;45.01
62057;BME280;48016;50.284;18.860;2022-07-29T08:01:33;98323.44;;;25.22;45.26
62057;BME280;48016;50.284;18.860;2022-07-29T08:04:00;98322.33;;;24.99;45.64
62057;BME280;48016;50.284;18.860;2022-07-29T08:06:27;98324.16;;;25.07;45.99
62057;BME280;48016;50.284;18.860;2022-07-29T08:08:54;98323.25;;;25.15;46.00
62057;BME280;48016;50.284;18.860;2022-07-29T08:11:21;98331.73;;;25.22;46.21
62057;BME280;48016;50.284;18.860;2022-07-29T08:13:48;98327.78;;;25.36;46.23
62057;BME280;48016;50.284;18.860;2022-07-29T08:16:15;98324.00;;;25.56;46.00
62057;BME280;48016;50.284;18.860;2022-07-29T08:18:43;98318.59;;;25.76;45.66
62057;BME280;48016;50.284;18.860;2022-07-29T08:21:15;98322.86;;;26.01;45.21
62057;BME280;48016;50.284;18.860;2022-07-29T08:23:44;98319.63;;;26.31;46.23
62057;BME280;48016;50.284;18.860;2022-07-29T08:26:13;98328.93;;;26.54;45.02
62057;BME280;48016;50.284;18.860;2022-07-29T08:28:42;98339.03;;;26.31;43.76
62057;BME280;48016;50.284;18.860;2022-07-29T08:31:12;98326.25;;;26.10;44.13
62057;BME280;48016;50.284;18.860;2022-07-29T08:33:40;98318.92;;;26.02;44.56
62057;BME280;48016;50.284;18.860;2022-07-29T08:36:08;98320.26;;;26.08;45.35
62057;BME280;48016;50.284;18.860;2022-07-29T08:38:35;98331.44;;;26.28;44.76
62057;BME280;48016;50.284;18.860;2022-07-29T08:41:02;98334.74;;;26.33;44.72
62057;BME280;48016;50.284;18.860;2022-07-29T08:43:29;98335.70;;;26.41;44.81
62057;BME280;48016;50.284;18.860;2022-07-29T08:45:56;98337.06;;;26.47;44.54
62057;BME280;48016;50.284;18.860;2022-07-29T08:48:24;98327.57;;;26.32;44.34
62057;BME280;48016;50.284;18.860;2022-07-29T08:50:57;98325.28;;;26.19;44.69
62057;BME280;48016;50.284;18.860;2022-07-29T08:53:26;98334.83;;;26.05;44.38
62057;BME280;48016;50.284;18.860;2022-07-29T08:55:54;98326.94;;;25.91;44.63
62057;BME280;48016;50.284;18.860;2022-07-29T08:58:23;98320.98;;;25.89;44.96
62057;BME280;48016;50.284;18.860;2022-07-29T09:00:53;98330.08;;;26.06;44.81
62057;BME280;48016;50.284;18.860;2022-07-29T09:03:23;98328.77;;;26.15;45.26
62057;BME280;48016;50.284;18.860;2022-07-29T09:05:51;98318.03;;;26.30;45.02
62057;BME280;48016;50.284;18.860;2022-07-29T09:08:19;98319.63;;;26.31;45.23
62057;BME280;48016;50.284;18.860;2022-07-29T09:10:47;98319.63;;;26.31;44.73
62057;BME280;48016;50.284;18.860;2022-07-29T09:13:14;98313.89;;;26.55;44.92
62057;BME280;48016;50.284;18.860;2022-07-29T09:15:42;98312.90;;;26.64;44.50
62057;BME280;48016;50.284;18.860;2022-07-29T09:18:09;98305.11;;;26.69;44.13
62057;BME280;48016;50.284;18.860;2022-07-29T09:20:36;98307.33;;;26.79;44.43
62057;BME280;48016;50.284;18.860;2022-07-29T09:23:23;98307.02;;;26.85;44.18
62057;BME280;48016;50.284;18.860;2022-07-29T09:25:50;98300.98;;;26.98;43.85
62057;BME280;48016;50.284;18.860;2022-07-29T09:28:17;98296.41;;;27.06;43.04
62057;BME280;48016;50.284;18.860;2022-07-29T09:30:58;98307.95;;;27.08;43.19
62057;BME280;48016;50.284;18.860;2022-07-29T09:33:32;98316.00;;;26.78;43.32
62057;BME280;48016;50.284;18.860;2022-07-29T09:36:07;98294.22;;;26.60;43.78
62057;BME280;48016;50.284;18.860;2022-07-29T09:38:35;98301.09;;;26.67;43.97
62057;BME280;48016;50.284;18.860;2022-07-29T09:41:04;98297.27;;;26.55;43.79
62057;BME280;48016;50.284;18.860;2022-07-29T09:43:32;98294.58;;;26.43;44.00
62057;BME280;48016;50.284;18.860;2022-07-29T09:46:12;98313.98;;;26.43;44.18
62057;BME280;48016;50.284;18.860;2022-07-29T09:48:40;98303.53;;;26.21;44.28
62057;BME280;48016;50.284;18.860;2022-07-29T09:51:17;98301.32;;;26.10;44.38
62057;BME280;48016;50.284;18.860;2022-07-29T09:53:45;98285.86;;;25.93;44.53
62057;BME280;48016;50.284;18.860;2022-07-29T09:56:12;98304.45;;;25.93;44.90
62057;BME280;48016;50.284;18.860;2022-07-29T09:58:40;98292.83;;;25.87;44.89
62057;BME280;48016;50.284;18.860;2022-07-29T10:01:08;98300.50;;;25.94;44.93
62057;BME280;48016;50.284;18.860;2022-07-29T10:03:53;98295.94;;;26.18;45.21
62057;BME280;48016;50.284;18.860;2022-07-29T10:06:20;98288.35;;;26.30;43.83
62057;BME280;48016;50.284;18.860;2022-07-29T10:08:48;98287.44;;;26.42;43.94
62057;BME280;48016;50.284;18.860;2022-07-29T10:11:17;98282.05;;;26.49;43.87
62057;BME280;48016;50.284;18.860;2022-07-29T10:13:48;98284.81;;;26.49;43.81
62057;BME280;48016;50.284;18.860;2022-07-29T10:16:16;98285.90;;;26.60;43.71
62057;BME280;48016;50.284;18.860;2022-07-29T10:18:44;98276.30;;;26.74;43.36
62057;BME280;48016;50.284;18.860;2022-07-29T10:21:13;98275.72;;;26.84;43.76
62057;BME280;48016;50.284;18.860;2022-07-29T10:23:40;98285.05;;;26.76;42.99
62057;BME280;48016;50.284;18.860;2022-07-29T10:26:10;98276.27;;;26.54;43.30
62057;BME280;48016;50.284;18.860;2022-07-29T10:28:37;98274.03;;;26.44;43.52
62057;BME280;48016;50.284;18.860;2022-07-29T10:31:06;98266.94;;;26.47;43.69
62057;BME280;48016;50.284;18.860;2022-07-29T10:34:18;98280.16;;;26.69;43.69
62057;BME280;48016;50.284;18.860;2022-07-29T10:36:56;98267.98;;;26.93;43.88
62057;BME280;48016;50.284;18.860;2022-07-29T10:39:39;98265.53;;;27.27;43.55
62057;BME280;48016;50.284;18.860;2022-07-29T10:42:30;98271.58;;;27.52;43.08
62057;BME280;48016;50.284;18.860;2022-07-29T10:44:57;98263.13;;;27.68;42.87
62057;BME280;48016;50.284;18.860;2022-07-29T10:47:26;98265.88;;;27.87;42.79
62057;BME280;48016;50.284;18.860;2022-07-29T10:49:58;98266.13;;;28.02;42.11
62057;BME280;48016;50.284;18.860;2022-07-29T10:58:22;98269.67;;;28.25;41.28
62057;BME280;48016;50.284;18.860;2022-07-29T11:00:53;98271.27;;;28.26;41.39
62057;BME280;48016;50.284;18.860;2022-07-29T11:03:56;98274.48;;;28.28;41.08
62057;BME280;48016;50.284;18.860;2022-07-29T11:06:23;98268.44;;;28.23;40.75
62057;BME280;48016;50.284;18.860;2022-07-29T11:09:14;98267.64;;;28.22;40.88
62057;BME280;48016;50.284;18.860;2022-07-29T11:11:42;98262.91;;;28.00;41.18
62057;BME280;48016;50.284;18.860;2022-07-29T11:14:09;98255.63;;;27.91;41.19
62057;BME280;48016;50.284;18.860;2022-07-29T11:17:02;98261.62;;;27.93;41.11
62057;BME280;48016;50.284;18.860;2022-07-29T11:19:30;98256.36;;;27.88;41.49
62057;BME280;48016;50.284;18.860;2022-07-29T11:21:57;98255.08;;;27.82;41.04
62057;BME280;48016;50.284;18.860;2022-07-29T11:24:29;98248.88;;;27.69;40.55
62057;BME280;48016;50.284;18.860;2022-07-29T11:27:09;98252.64;;;27.58;41.27
62057;BME280;48016;50.284;18.860;2022-07-29T11:29:39;98258.79;;;27.47;40.96
62057;BME280;48016;50.284;18.860;2022-07-29T11:32:10;98253.28;;;27.28;41.05
62057;BME280;48016;50.284;18.860;2022-07-29T11:34:37;98265.53;;;27.27;41.60
62057;BME280;48016;50.284;18.860;2022-07-29T11:39:47;98260.70;;;27.43;41.57
62057;BME280;48016;50.284;18.860;2022-07-29T11:42:40;98260.77;;;27.47;41.74
62057;BME280;48016;50.284;18.860;2022-07-29T11:45:19;98253.20;;;27.67;41.91
62057;BME280;48016;50.284;18.860;2022-07-29T11:47:53;98252.59;;;28.00;42.31
62057;BME280;48016;50.284;18.860;2022-07-29T11:50:36;98261.65;;;28.20;41.50
62057;BME280;48016;50.284;18.860;2022-07-29T11:53:11;98259.21;;;28.15;39.60
62057;BME280;48016;50.284;18.860;2022-07-29T11:55:41;98251.18;;;28.10;40.26
62057;BME280;48016;50.284;18.860;2022-07-29T11:58:09;98253.57;;;28.11;40.96
62057;BME280;48016;50.284;18.860;2022-07-29T12:00:40;98255.11;;;28.09;40.47
62057;BME280;48016;50.284;18.860;2022-07-29T12:03:10;98269.21;;;27.97;40.55
62057;BME280;48016;50.284;18.860;2022-07-29T12:05:41;98261.81;;;27.81;40.19
62057;BME280;48016;50.284;18.860;2022-07-29T12:10:38;98267.41;;;27.42;40.42
62057;BME280;48016;50.284;18.860;2022-07-29T12:13:06;98276.34;;;27.32;41.02
62057;BME280;48016;50.284;18.860;2022-07-29T12:15:33;98271.69;;;27.17;40.88
62057;BME280;48016;50.284;18.860;2022-07-29T12:18:15;98271.94;;;26.92;40.37
62057;BME280;48016;50.284;18.860;2022-07-29T12:20:44;98269.13;;;26.73;41.23
62057;BME280;48016;50.284;18.860;2022-07-29T12:23:11;98267.02;;;26.66;41.58
62057;BME280;48016;50.284;18.860;2022-07-29T12:25:40;98274.61;;;26.69;41.52
62057;BME280;48016;50.284;18.860;2022-07-29T12:28:09;98270.38;;;26.75;41.52
62057;BME280;48016;50.284;18.860;2022-07-29T12:30:48;98268.41;;;26.76;41.73
62057;BME280;48016;50.284;18.860;2022-07-29T12:35:57;98262.30;;;26.86;41.92
62057;BME280;48016;50.284;18.860;2022-07-29T12:38:24;98262.23;;;26.82;41.69
62057;BME280;48016;50.284;18.860;2022-07-29T12:40:53;98258.66;;;26.82;42.00
62057;BME280;48016;50.284;18.860;2022-07-29T12:43:22;98259.08;;;26.84;42.04
62057;BME280;48016;50.284;18.860;2022-07-29T12:45:52;98255.44;;;26.80;42.35
62057;BME280;48016;50.284;18.860;2022-07-29T12:48:37;98245.07;;;26.77;42.66
62057;BME280;48016;50.284;18.860;2022-07-29T12:51:06;98250.41;;;26.86;42.48
62057;BME280;48016;50.284;18.860;2022-07-29T12:53:38;98252.97;;;26.94;42.69
62057;BME280;48016;50.284;18.860;2022-07-29T12:56:06;98245.16;;;27.00;42.54
62057;BME280;48016;50.284;18.860;2022-07-29T12:58:42;98248.44;;;27.05;42.07
62057;BME280;48016;50.284;18.860;2022-07-29T13:01:16;98239.73;;;27.07;42.57
62057;BME280;48016;50.284;18.860;2022-07-29T13:03:50;98242.09;;;27.05;42.52
62057;BME280;48016;50.284;18.860;2022-07-29T13:06:37;98233.27;;;26.99;42.37
62057;BME280;48016;50.284;18.860;2022-07-29T13:09:11;98228.45;;;26.96;42.77
62057;BME280;48016;50.284;18.860;2022-07-29T13:11:42;98232.23;;;26.88;42.34
62057;BME280;48016;50.284;18.860;2022-07-29T13:14:14;98219.45;;;26.83;42.76
62057;BME280;48016;50.284;18.860;2022-07-29T13:17:13;98215.50;;;26.85;42.94
62057;BME280;48016;50.284;18.860;2022-07-29T13:19:46;98217.64;;;26.91;43.10
62057;BME280;48016;50.284;18.860;2022-07-29T13:22:16;98209.31;;;26.91;42.73
62057;BME280;48016;50.284;18.860;2022-07-29T13:24:52;98205.14;;;26.81;42.89
62057;BME280;48016;50.284;18.860;2022-07-29T13:27:25;98211.20;;;26.87;42.63
62057;BME280;48016;50.284;18.860;2022-07-29T13:29:54;98195.73;;;26.86;42.42
62057;BME280;48016;50.284;18.860;2022-07-29T13:32:24;98191.05;;;26.90;42.68